sensor_id;sensor_type;location;lat;lon;timestamp;temperature;humidity
53410;DHT22;66590;50.734;4.246;2023-02-12T00:01:14;8.40;99.90
53410;DHT22;66590;50.734;4.246;2023-02-12T00:03:42;8.50;99.90
53410;DHT22;66590;50.734;4.246;2023-02-12T00:06:10;8.50;99.90
53410;DHT22;66590;50.734;4.246;2023-02-12T00:08:41;8.50;99.90
53410;DHT22;66590;50.734;4.246;2023-02-12T00:11:10;8.50;99.90
53410;DHT22;66590;50.734;4.246;2023-02-12T00:13:38;8.50;99.90
53410;DHT22;66590;50.734;4.246;2023-02-12T00:16:06;8.50;99.90
53410;DHT22;66590;50.734;4.246;2023-02-12T00:18:34;8.40;99.90
53410;DHT22;66590;50.734;4.246;2023-02-12T00:21:01;8.40;99.90
53410;DHT22;66590;50.734;4.246;2023-02-12T00:23:30;8.40;99.90
53410;DHT22;66590;50.734;4.246;2023-02-12T00:25:57;8.30;99.90
53410;DHT22;66590;50.734;4.246;2023-02-12T00:28:24;8.30;99.90
53410;DHT22;66590;50.734;4.246;2023-02-12T00:30:51;8.30;99.90
53410;DHT22;66590;50.734;4.246;2023-02-12T00:33:19;8.30;99.90
53410;DHT22;66590;50.734;4.246;2023-02-12T00:35:54;8.30;99.90
53410;DHT22;66590;50.734;4.246;2023-02-12T00:38:25;8.40;99.90
53410;DHT22;66590;50.734;4.246;2023-02-12T00:40:53;8.40;99.90
53410;DHT22;66590;50.734;4.246;2023-02-12T00:43:21;8.40;99.90
53410;DHT22;66590;50.734;4.246;2023-02-12T00:45:48;8.40;99.90
53410;DHT22;66590;50.734;4.246;2023-02-12T00:48:15;8.40;99.90
53410;DHT22;66590;50.734;4.246;2023-02-12T00:50:44;8.30;99.90
53410;DHT22;66590;50.734;4.246;2023-02-12T00:53:11;8.10;99.90
53410;DHT22;66590;50.734;4.246;2023-02-12T00:55:38;8.10;99.90
53410;DHT22;66590;50.734;4.246;2023-02-12T00:58:07;8.20;99.90
53410;DHT22;66590;50.734;4.246;2023-02-12T01:00:35;8.20;99.90
53410;DHT22;66590;50.734;4.246;2023-02-12T01:03:02;8.20;99.90
53410;DHT22;66590;50.734;4.246;2023-02-12T01:05:29;8.20;99.90
53410;DHT22;66590;50.734;4.246;2023-02-12T01:07:56;8.10;99.90
53410;DHT22;66590;50.734;4.246;2023-02-12T01:10:23;8.20;99.90
53410;DHT22;66590;50.734;4.246;2023-02-12T01:12:50;8.20;99.90
53410;DHT22;66590;50.734;4.246;2023-02-12T01:15:19;8.20;99.90
53410;DHT22;66590;50.734;4.246;2023-02-12T01:17:46;8.30;99.90
53410;DHT22;66590;50.734;4.246;2023-02-12T01:20:16;8.30;99.90
53410;DHT22;66590;50.734;4.246;2023-02-12T01:22:43;8.30;99.90
53410;DHT22;66590;50.734;4.246;2023-02-12T01:25:11;8.30;99.90
53410;DHT22;66590;50.734;4.246;2023-02-12T01:27:39;8.30;99.90
53410;DHT22;66590;50.734;4.246;2023-02-12T01:30:09;8.20;99.90
53410;DHT22;66590;50.734;4.246;2023-02-12T01:32:38;8.20;99.90
53410;DHT22;66590;50.734;4.246;2023-02-12T01:35:07;8.20;99.90
53410;DHT22;66590;50.734;4.246;2023-02-12T01:37:34;8.20;99.90
53410;DHT22;66590;50.734;4.246;2023-02-12T01:40:02;8.20;99.90
53410;DHT22;66590;50.734;4.246;2023-02-12T01:42:29;8.10;99.90
53410;DHT22;66590;50.734;4.246;2023-02-12T01:48:11;8.20;99.90
53410;DHT22;66590;50.734;4.246;2023-02-12T01:50:38;8.10;99.90
53410;DHT22;66590;50.734;4.246;2023-02-12T01:53:05;8.10;99.90
53410;DHT22;66590;50.734;4.246;2023-02-12T01:55:33;8.10;99.90
53410;DHT22;66590;50.734;4.246;2023-02-12T01:58:00;8.10;99.90
53410;DHT22;66590;50.734;4.246;2023-02-12T02:00:28;8.10;99.90
53410;DHT22;66590;50.734;4.246;2023-02-12T02:02:57;8.10;99.90
53410;DHT22;66590;50.734;4.246;2023-02-12T02:05:32;8.00;99.90
53410;DHT22;66590;50.734;4.246;2023-02-12T02:08:01;7.90;99.90
53410;DHT22;66590;50.734;4.246;2023-02-12T02:10:29;7.90;99.90
53410;DHT22;66590;50.734;4.246;2023-02-12T02:12:56;8.00;99.90
53410;DHT22;66590;50.734;4.246;2023-02-12T02:15:25;8.00;99.90
53410;DHT22;66590;50.734;4.246;2023-02-12T02:17:57;8.10;99.90
53410;DHT22;66590;50.734;4.246;2023-02-12T02:20:48;8.10;99.90
53410;DHT22;66590;50.734;4.246;2023-02-12T02:23:33;8.10;99.90
53410;DHT22;66590;50.734;4.246;2023-02-12T02:26:32;8.00;99.90
53410;DHT22;66590;50.734;4.246;2023-02-12T02:29:39;8.00;99.90
53410;DHT22;66590;50.734;4.246;2023-02-12T02:32:13;8.10;99.90
53410;DHT22;66590;50.734;4.246;2023-02-12T02:34:49;8.00;99.90
53410;DHT22;66590;50.734;4.246;2023-02-12T02:37:25;8.00;99.90
53410;DHT22;66590;50.734;4.246;2023-02-12T02:39:58;8.10;99.90
53410;DHT22;66590;50.734;4.246;2023-02-12T02:42:31;8.10;99.90
53410;DHT22;66590;50.734;4.246;2023-02-12T02:45:03;8.10;99.90
53410;DHT22;66590;50.734;4.246;2023-02-12T02:47:38;8.10;99.90
53410;DHT22;66590;50.734;4.246;2023-02-12T02:50:11;8.10;99.90
53410;DHT22;66590;50.734;4.246;2023-02-12T02:52:43;8.00;99.90
53410;DHT22;66590;50.734;4.246;2023-02-12T02:55:14;8.10;99.90
53410;DHT22;66590;50.734;4.246;2023-02-12T02:57:46;8.00;99.90
53410;DHT22;66590;50.734;4.246;2023-02-12T03:00:25;8.00;99.90
53410;DHT22;66590;50.734;4.246;2023-02-12T03:02:58;8.00;99.90
53410;DHT22;66590;50.734;4.246;2023-02-12T03:05:38;8.00;99.90
53410;DHT22;66590;50.734;4.246;2023-02-12T03:08:13;8.00;99.90
53410;DHT22;66590;50.734;4.246;2023-02-12T03:10:50;8.00;99.90
53410;DHT22;66590;50.734;4.246;2023-02-12T03:13:21;8.00;99.90
53410;DHT22;66590;50.734;4.246;2023-02-12T03:16:10;8.00;99.90
53410;DHT22;66590;50.734;4.246;2023-02-12T03:18:44;7.90;99.90
53410;DHT22;66590;50.734;4.246;2023-02-12T03:21:25;7.90;99.90
53410;DHT22;66590;50.734;4.246;2023-02-12T03:23:59;8.00;99.90
53410;DHT22;66590;50.734;4.246;2023-02-12T03:26:40;8.00;99.90
53410;DHT22;66590;50.734;4.246;2023-02-12T03:29:09;8.00;99.90
53410;DHT22;66590;50.734;4.246;2023-02-12T03:31:55;8.00;99.90
53410;DHT22;66590;50.734;4.246;2023-02-12T03:34:47;8.00;99.90
53410;DHT22;66590;50.734;4.246;2023-02-12T03:37:27;8.00;99.90
53410;DHT22;66590;50.734;4.246;2023-02-12T03:39:59;8.00;99.90
53410;DHT22;66590;50.734;4.246;2023-02-12T03:42:39;7.80;99.90
53410;DHT22;66590;50.734;4.246;2023-02-12T03:45:21;7.80;99.90
53410;DHT22;66590;50.734;4.246;2023-02-12T03:48:04;7.70;99.90
53410;DHT22;66590;50.734;4.246;2023-02-12T03:50:38;7.80;99.90
53410;DHT22;66590;50.734;4.246;2023-02-12T03:53:14;7.80;99.90
53410;DHT22;66590;50.734;4.246;2023-02-12T03:55:43;7.70;99.90
53410;DHT22;66590;50.734;4.246;2023-02-12T03:58:23;7.80;99.90
53410;DHT22;66590;50.734;4.246;2023-02-12T04:00:52;7.80;99.90
53410;DHT22;66590;50.734;4.246;2023-02-12T04:03:27;7.80;99.90
53410;DHT22;66590;50.734;4.246;2023-02-12T04:05:56;7.70;99.90
53410;DHT22;66590;50.734;4.246;2023-02-12T04:08:30;7.80;99.90
53410;DHT22;66590;50.734;4.246;2023-02-12T04:11:05;7.80;99.90
53410;DHT22;66590;50.734;4.246;2023-02-12T04:13:43;7.80;99.90
53410;DHT22;66590;50.734;4.246;2023-02-12T04:16:18;7.80;99.90
53410;DHT22;66590;50.734;4.246;2023-02-12T04:18:55;7.80;99.90
53410;DHT22;66590;50.734;4.246;2023-02-12T04:21:37;7.80;99.90
53410;DHT22;66590;50.734;4.246;2023-02-12T04:24:16;7.80;99.90
53410;DHT22;66590;50.734;4.246;2023-02-12T04:26:48;7.80;99.90
53410;DHT22;66590;50.734;4.246;2023-02-12T04:29:31;7.80;99.90
53410;DHT22;66590;50.734;4.246;2023-02-12T04:32:04;7.80;99.90
53410;DHT22;66590;50.734;4.246;2023-02-12T04:34:44;7.80;99.90
53410;DHT22;66590;50.734;4.246;2023-02-12T04:37:18;7.70;99.90
53410;DHT22;66590;50.734;4.246;2023-02-12T04:39:53;7.80;99.90
53410;DHT22;66590;50.734;4.246;2023-02-12T04:42:21;7.90;99.90
53410;DHT22;66590;50.734;4.246;2023-02-12T04:44:55;7.80;99.90
53410;DHT22;66590;50.734;4.246;2023-02-12T04:47:22;7.80;99.90
53410;DHT22;66590;50.734;4.246;2023-02-12T04:49:55;7.90;99.90
53410;DHT22;66590;50.734;4.246;2023-02-12T04:52:23;7.90;99.90
53410;DHT22;66590;50.734;4.246;2023-02-12T04:54:57;8.00;99.90
53410;DHT22;66590;50.734;4.246;2023-02-12T04:57:24;7.90;99.90
53410;DHT22;66590;50.734;4.246;2023-02-12T04:59:58;7.90;99.90
53410;DHT22;66590;50.734;4.246;2023-02-12T05:02:25;7.90;99.90
53410;DHT22;66590;50.734;4.246;2023-02-12T05:04:59;7.90;99.90
53410;DHT22;66590;50.734;4.246;2023-02-12T05:07:27;8.00;99.90
53410;DHT22;66590;50.734;4.246;2023-02-12T05:10:01;8.00;99.90
53410;DHT22;66590;50.734;4.246;2023-02-12T05:12:28;8.00;99.90
53410;DHT22;66590;50.734;4.246;2023-02-12T05:15:02;8.00;99.90
53410;DHT22;66590;50.734;4.246;2023-02-12T05:17:29;8.00;99.90
53410;DHT22;66590;50.734;4.246;2023-02-12T05:20:03;8.00;99.90
53410;DHT22;66590;50.734;4.246;2023-02-12T05:22:32;8.00;99.90
53410;DHT22;66590;50.734;4.246;2023-02-12T05:25:06;8.00;99.90
53410;DHT22;66590;50.734;4.246;2023-02-12T05:27:33;8.00;99.90
53410;DHT22;66590;50.734;4.246;2023-02-12T05:30:08;8.00;99.90
53410;DHT22;66590;50.734;4.246;2023-02-12T05:32:35;8.00;99.90
53410;DHT22;66590;50.734;4.246;2023-02-12T05:35:09;8.00;99.90
53410;DHT22;66590;50.734;4.246;2023-02-12T05:37:37;8.00;99.90
53410;DHT22;66590;50.734;4.246;2023-02-12T05:40:11;7.90;99.90
53410;DHT22;66590;50.734;4.246;2023-02-12T05:42:38;7.90;99.90
53410;DHT22;66590;50.734;4.246;2023-02-12T05:45:12;7.90;99.90
53410;DHT22;66590;50.734;4.246;2023-02-12T05:47:39;7.90;99.90
53410;DHT22;66590;50.734;4.246;2023-02-12T05:50:13;7.90;99.90
53410;DHT22;66590;50.734;4.246;2023-02-12T05:52:41;8.00;99.90
53410;DHT22;66590;50.734;4.246;2023-02-12T05:55:15;7.90;99.90
53410;DHT22;66590;50.734;4.246;2023-02-12T05:57:42;7.90;99.90
53410;DHT22;66590;50.734;4.246;2023-02-12T06:00:16;7.80;99.90
53410;DHT22;66590;50.734;4.246;2023-02-12T06:02:43;7.90;99.90
53410;DHT22;66590;50.734;4.246;2023-02-12T06:05:17;7.90;99.90
53410;DHT22;66590;50.734;4.246;2023-02-12T06:07:45;7.90;99.90
53410;DHT22;66590;50.734;4.246;2023-02-12T06:10:19;7.90;99.90
53410;DHT22;66590;50.734;4.246;2023-02-12T06:12:46;8.00;99.90
53410;DHT22;66590;50.734;4.246;2023-02-12T06:15:20;8.00;99.90
53410;DHT22;66590;50.734;4.246;2023-02-12T06:17:47;7.90;99.90
53410;DHT22;66590;50.734;4.246;2023-02-12T06:20:20;7.90;99.90
53410;DHT22;66590;50.734;4.246;2023-02-12T06:22:48;7.80;99.90
53410;DHT22;66590;50.734;4.246;2023-02-12T06:25:22;7.80;99.90
53410;DHT22;66590;50.734;4.246;2023-02-12T06:27:49;7.80;99.90
53410;DHT22;66590;50.734;4.246;2023-02-12T06:30:23;7.80;99.90
53410;DHT22;66590;50.734;4.246;2023-02-12T06:32:50;7.70;99.90
53410;DHT22;66590;50.734;4.246;2023-02-12T06:35:24;7.70;99.90
53410;DHT22;66590;50.734;4.246;2023-02-12T06:37:52;7.70;99.90
53410;DHT22;66590;50.734;4.246;2023-02-12T06:40:26;7.60;99.90
53410;DHT22;66590;50.734;4.246;2023-02-12T06:42:53;7.70;99.90
53410;DHT22;66590;50.734;4.246;2023-02-12T06:45:20;7.70;99.90
53410;DHT22;66590;50.734;4.246;2023-02-12T06:47:54;7.70;99.90
53410;DHT22;66590;50.734;4.246;2023-02-12T06:50:21;7.70;99.90
53410;DHT22;66590;50.734;4.246;2023-02-12T06:52:57;7.70;99.90
53410;DHT22;66590;50.734;4.246;2023-02-12T06:55:24;7.70;99.90
53410;DHT22;66590;50.734;4.246;2023-02-12T06:57:58;7.70;99.90
53410;DHT22;66590;50.734;4.246;2023-02-12T07:00:25;7.60;99.90
53410;DHT22;66590;50.734;4.246;2023-02-12T07:02:59;7.60;99.90
53410;DHT22;66590;50.734;4.246;2023-02-12T07:05:26;7.60;99.90
53410;DHT22;66590;50.734;4.246;2023-02-12T07:08:01;7.60;99.90
53410;DHT22;66590;50.734;4.246;2023-02-12T07:10:28;7.60;99.90
53410;DHT22;66590;50.734;4.246;2023-02-12T07:13:04;7.70;99.90
53410;DHT22;66590;50.734;4.246;2023-02-12T07:15:31;7.70;99.90
53410;DHT22;66590;50.734;4.246;2023-02-12T07:18:05;7.60;99.90
53410;DHT22;66590;50.734;4.246;2023-02-12T07:20:32;7.70;99.90
53410;DHT22;66590;50.734;4.246;2023-02-12T07:23:09;7.70;99.90
53410;DHT22;66590;50.734;4.246;2023-02-12T07:25:37;7.80;99.90
53410;DHT22;66590;50.734;4.246;2023-02-12T07:28:10;7.70;99.90
53410;DHT22;66590;50.734;4.246;2023-02-12T07:30:37;7.70;99.90
53410;DHT22;66590;50.734;4.246;2023-02-12T07:33:11;7.60;99.90
53410;DHT22;66590;50.734;4.246;2023-02-12T07:35:38;7.60;99.90
53410;DHT22;66590;50.734;4.246;2023-02-12T07:38:12;7.60;99.90
53410;DHT22;66590;50.734;4.246;2023-02-12T07:40:39;7.70;99.90
53410;DHT22;66590;50.734;4.246;2023-02-12T07:43:13;7.70;99.90
53410;DHT22;66590;50.734;4.246;2023-02-12T07:45:40;7.60;99.90
53410;DHT22;66590;50.734;4.246;2023-02-12T07:48:14;7.60;99.90
53410;DHT22;66590;50.734;4.246;2023-02-12T07:50:41;7.60;99.90
53410;DHT22;66590;50.734;4.246;2023-02-12T07:53:16;7.70;99.90
53410;DHT22;66590;50.734;4.246;2023-02-12T07:55:43;7.80;99.90
53410;DHT22;66590;50.734;4.246;2023-02-12T07:58:17;7.80;99.90
53410;DHT22;66590;50.734;4.246;2023-02-12T08:00:44;7.90;99.90
53410;DHT22;66590;50.734;4.246;2023-02-12T08:03:18;7.90;99.90
53410;DHT22;66590;50.734;4.246;2023-02-12T08:05:45;7.90;99.90
53410;DHT22;66590;50.734;4.246;2023-02-12T08:08:21;7.90;99.90
53410;DHT22;66590;50.734;4.246;2023-02-12T08:10:48;7.90;99.90
53410;DHT22;66590;50.734;4.246;2023-02-12T08:13:22;7.90;99.90
53410;DHT22;66590;50.734;4.246;2023-02-12T08:15:49;8.00;99.90
53410;DHT22;66590;50.734;4.246;2023-02-12T08:18:23;8.00;99.90
53410;DHT22;66590;50.734;4.246;2023-02-12T08:20:50;8.00;99.90
53410;DHT22;66590;50.734;4.246;2023-02-12T08:23:25;8.00;99.90
53410;DHT22;66590;50.734;4.246;2023-02-12T08:25:52;8.10;99.90
53410;DHT22;66590;50.734;4.246;2023-02-12T08:28:26;8.10;99.90
53410;DHT22;66590;50.734;4.246;2023-02-12T08:30:59;8.20;99.90
53410;DHT22;66590;50.734;4.246;2023-02-12T08:33:26;8.20;99.90
53410;DHT22;66590;50.734;4.246;2023-02-12T08:36:00;8.30;99.90
53410;DHT22;66590;50.734;4.246;2023-02-12T08:38:29;8.30;99.90
53410;DHT22;66590;50.734;4.246;2023-02-12T08:41:00;8.40;99.90
53410;DHT22;66590;50.734;4.246;2023-02-12T08:43:27;8.50;99.90
53410;DHT22;66590;50.734;4.246;2023-02-12T08:45:54;8.40;99.90
53410;DHT22;66590;50.734;4.246;2023-02-12T08:48:22;8.50;99.90
53410;DHT22;66590;50.734;4.246;2023-02-12T08:50:49;8.50;99.90
53410;DHT22;66590;50.734;4.246;2023-02-12T08:53:16;8.60;99.90
53410;DHT22;66590;50.734;4.246;2023-02-12T08:55:48;8.60;99.90
53410;DHT22;66590;50.734;4.246;2023-02-12T08:58:15;8.60;99.90
53410;DHT22;66590;50.734;4.246;2023-02-12T09:00:42;8.60;99.90
53410;DHT22;66590;50.734;4.246;2023-02-12T09:03:09;8.70;99.90
53410;DHT22;66590;50.734;4.246;2023-02-12T09:05:38;8.70;99.90
53410;DHT22;66590;50.734;4.246;2023-02-12T09:08:06;8.70;99.90
53410;DHT22;66590;50.734;4.246;2023-02-12T09:10:37;8.80;99.90
53410;DHT22;66590;50.734;4.246;2023-02-12T09:13:06;8.90;99.90
53410;DHT22;66590;50.734;4.246;2023-02-12T09:15:36;8.80;99.90
53410;DHT22;66590;50.734;4.246;2023-02-12T09:18:03;8.70;99.90
53410;DHT22;66590;50.734;4.246;2023-02-12T09:20:30;8.70;99.90
53410;DHT22;66590;50.734;4.246;2023-02-12T09:22:58;8.50;99.90
53410;DHT22;66590;50.734;4.246;2023-02-12T09:25:25;8.50;99.90
53410;DHT22;66590;50.734;4.246;2023-02-12T09:27:54;8.50;99.90
53410;DHT22;66590;50.734;4.246;2023-02-12T09:30:22;8.70;99.90
53410;DHT22;66590;50.734;4.246;2023-02-12T09:32:49;8.80;99.90
53410;DHT22;66590;50.734;4.246;2023-02-12T09:35:16;8.90;99.90
53410;DHT22;66590;50.734;4.246;2023-02-12T09:37:44;8.90;99.90
53410;DHT22;66590;50.734;4.246;2023-02-12T09:40:18;8.90;99.90
53410;DHT22;66590;50.734;4.246;2023-02-12T09:42:58;8.90;99.90
53410;DHT22;66590;50.734;4.246;2023-02-12T09:45:34;8.90;99.90
53410;DHT22;66590;50.734;4.246;2023-02-12T09:48:16;8.90;99.90
53410;DHT22;66590;50.734;4.246;2023-02-12T09:50:51;9.00;99.90
53410;DHT22;66590;50.734;4.246;2023-02-12T09:53:22;9.10;99.90
53410;DHT22;66590;50.734;4.246;2023-02-12T09:55:50;9.20;99.90
53410;DHT22;66590;50.734;4.246;2023-02-12T09:58:22;9.20;99.90
53410;DHT22;66590;50.734;4.246;2023-02-12T10:00:52;9.20;99.90
53410;DHT22;66590;50.734;4.246;2023-02-12T10:03:21;9.10;99.90
53410;DHT22;66590;50.734;4.246;2023-02-12T10:05:50;9.10;99.90
53410;DHT22;66590;50.734;4.246;2023-02-12T10:08:38;9.10;99.90
53410;DHT22;66590;50.734;4.246;2023-02-12T10:11:23;9.20;99.90
53410;DHT22;66590;50.734;4.246;2023-02-12T10:14:07;9.20;99.90
53410;DHT22;66590;50.734;4.246;2023-02-12T10:16:46;9.20;99.90
53410;DHT22;66590;50.734;4.246;2023-02-12T10:19:31;9.30;99.90
53410;DHT22;66590;50.734;4.246;2023-02-12T10:22:06;9.30;99.90
53410;DHT22;66590;50.734;4.246;2023-02-12T10:24:55;9.50;99.90
53410;DHT22;66590;50.734;4.246;2023-02-12T10:27:34;9.30;99.90
53410;DHT22;66590;50.734;4.246;2023-02-12T10:30:05;9.30;99.90
53410;DHT22;66590;50.734;4.246;2023-02-12T10:32:42;9.20;99.90
53410;DHT22;66590;50.734;4.246;2023-02-12T10:35:12;9.10;99.90
53410;DHT22;66590;50.734;4.246;2023-02-12T10:37:42;9.10;99.90
53410;DHT22;66590;50.734;4.246;2023-02-12T10:40:17;9.30;99.90
53410;DHT22;66590;50.734;4.246;2023-02-12T10:42:46;9.20;99.90
53410;DHT22;66590;50.734;4.246;2023-02-12T10:45:15;9.30;99.90
53410;DHT22;66590;50.734;4.246;2023-02-12T10:47:45;9.40;99.90
53410;DHT22;66590;50.734;4.246;2023-02-12T10:50:19;9.40;99.90
53410;DHT22;66590;50.734;4.246;2023-02-12T10:52:52;9.40;99.90
53410;DHT22;66590;50.734;4.246;2023-02-12T10:55:28;9.30;99.90
53410;DHT22;66590;50.734;4.246;2023-02-12T10:57:57;9.40;99.90
53410;DHT22;66590;50.734;4.246;2023-02-12T11:00:28;9.40;99.90
53410;DHT22;66590;50.734;4.246;2023-02-12T11:03:15;9.40;99.90
53410;DHT22;66590;50.734;4.246;2023-02-12T11:05:45;9.40;99.90
53410;DHT22;66590;50.734;4.246;2023-02-12T11:08:29;9.50;99.90
53410;DHT22;66590;50.734;4.246;2023-02-12T11:11:09;9.70;99.90
53410;DHT22;66590;50.734;4.246;2023-02-12T11:13:39;9.80;99.90
53410;DHT22;66590;50.734;4.246;2023-02-12T11:16:07;9.90;99.90
53410;DHT22;66590;50.734;4.246;2023-02-12T11:18:36;9.90;99.90
53410;DHT22;66590;50.734;4.246;2023-02-12T11:21:05;10.00;99.90
53410;DHT22;66590;50.734;4.246;2023-02-12T11:23:34;10.00;99.90
53410;DHT22;66590;50.734;4.246;2023-02-12T11:26:03;10.20;99.90
53410;DHT22;66590;50.734;4.246;2023-02-12T11:28:31;10.10;99.90
53410;DHT22;66590;50.734;4.246;2023-02-12T11:31:00;10.10;99.90
53410;DHT22;66590;50.734;4.246;2023-02-12T11:33:30;10.20;99.90
53410;DHT22;66590;50.734;4.246;2023-02-12T11:36:01;10.10;99.90
53410;DHT22;66590;50.734;4.246;2023-02-12T11:38:35;10.10;99.90
53410;DHT22;66590;50.734;4.246;2023-02-12T11:41:07;10.20;99.90
53410;DHT22;66590;50.734;4.246;2023-02-12T11:43:44;10.30;99.90
53410;DHT22;66590;50.734;4.246;2023-02-12T11:46:19;10.20;99.90
53410;DHT22;66590;50.734;4.246;2023-02-12T11:48:47;10.20;99.90
53410;DHT22;66590;50.734;4.246;2023-02-12T11:51:20;10.10;99.90
53410;DHT22;66590;50.734;4.246;2023-02-12T11:53:50;10.10;99.90
53410;DHT22;66590;50.734;4.246;2023-02-12T11:56:18;10.20;99.90
53410;DHT22;66590;50.734;4.246;2023-02-12T11:58:47;10.20;99.90
53410;DHT22;66590;50.734;4.246;2023-02-12T12:01:18;10.30;99.90
53410;DHT22;66590;50.734;4.246;2023-02-12T12:03:54;10.30;99.90
53410;DHT22;66590;50.734;4.246;2023-02-12T12:06:30;10.30;99.90
53410;DHT22;66590;50.734;4.246;2023-02-12T12:09:03;10.30;99.90
53410;DHT22;66590;50.734;4.246;2023-02-12T12:11:37;10.30;99.90
53410;DHT22;66590;50.734;4.246;2023-02-12T12:14:15;10.30;99.90
53410;DHT22;66590;50.734;4.246;2023-02-12T12:16:48;10.20;99.90
53410;DHT22;66590;50.734;4.246;2023-02-12T12:19:20;10.20;99.90
53410;DHT22;66590;50.734;4.246;2023-02-12T12:21:56;10.20;99.90
53410;DHT22;66590;50.734;4.246;2023-02-12T12:24:30;10.20;99.90
53410;DHT22;66590;50.734;4.246;2023-02-12T12:27:07;10.30;99.90
53410;DHT22;66590;50.734;4.246;2023-02-12T12:29:43;10.30;99.90
53410;DHT22;66590;50.734;4.246;2023-02-12T12:32:15;10.20;99.90
53410;DHT22;66590;50.734;4.246;2023-02-12T12:34:44;10.20;99.90
53410;DHT22;66590;50.734;4.246;2023-02-12T12:37:22;10.20;99.90
53410;DHT22;66590;50.734;4.246;2023-02-12T12:40:11;10.10;99.90
53410;DHT22;66590;50.734;4.246;2023-02-12T12:43:02;10.10;99.90
53410;DHT22;66590;50.734;4.246;2023-02-12T12:45:58;10.20;99.90
53410;DHT22;66590;50.734;4.246;2023-02-12T12:48:43;10.40;99.90
53410;DHT22;66590;50.734;4.246;2023-02-12T12:51:25;10.60;99.90
53410;DHT22;66590;50.734;4.246;2023-02-12T12:54:11;10.50;99.90
53410;DHT22;66590;50.734;4.246;2023-02-12T12:56:47;10.50;99.90
53410;DHT22;66590;50.734;4.246;2023-02-12T12:59:32;10.50;99.90
53410;DHT22;66590;50.734;4.246;2023-02-12T13:08:22;10.20;99.90
53410;DHT22;66590;50.734;4.246;2023-02-12T13:10:58;10.40;99.90
53410;DHT22;66590;50.734;4.246;2023-02-12T13:13:29;10.30;99.90
53410;DHT22;66590;50.734;4.246;2023-02-12T13:16:03;10.30;99.90
53410;DHT22;66590;50.734;4.246;2023-02-12T13:18:43;10.30;99.90
53410;DHT22;66590;50.734;4.246;2023-02-12T13:21:17;10.30;99.90
53410;DHT22;66590;50.734;4.246;2023-02-12T13:23:52;10.30;99.90
53410;DHT22;66590;50.734;4.246;2023-02-12T13:26:26;10.20;99.90
53410;DHT22;66590;50.734;4.246;2023-02-12T13:28:58;10.20;99.90
53410;DHT22;66590;50.734;4.246;2023-02-12T13:31:28;10.20;99.90
53410;DHT22;66590;50.734;4.246;2023-02-12T13:34:03;10.10;99.90
53410;DHT22;66590;50.734;4.246;2023-02-12T13:36:32;10.20;99.90
53410;DHT22;66590;50.734;4.246;2023-02-12T13:39:09;10.20;99.90
53410;DHT22;66590;50.734;4.246;2023-02-12T13:41:44;10.10;99.90
53410;DHT22;66590;50.734;4.246;2023-02-12T13:44:15;10.10;99.90
53410;DHT22;66590;50.734;4.246;2023-02-12T13:46:55;10.10;99.90
53410;DHT22;66590;50.734;4.246;2023-02-12T13:49:39;10.20;99.90
53410;DHT22;66590;50.734;4.246;2023-02-12T13:52:09;10.20;99.90
53410;DHT22;66590;50.734;4.246;2023-02-12T13:54:48;10.10;99.90
53410;DHT22;66590;50.734;4.246;2023-02-12T13:57:22;10.10;99.90
53410;DHT22;66590;50.734;4.246;2023-02-12T13:59:50;10.10;99.90
53410;DHT22;66590;50.734;4.246;2023-02-12T14:02:40;10.20;99.90
53410;DHT22;66590;50.734;4.246;2023-02-12T14:05:24;10.00;99.90
53410;DHT22;66590;50.734;4.246;2023-02-12T14:07:53;10.00;99.90
53410;DHT22;66590;50.734;4.246;2023-02-12T14:10:23;10.00;99.90
53410;DHT22;66590;50.734;4.246;2023-02-12T14:12:54;10.00;99.90
53410;DHT22;66590;50.734;4.246;2023-02-12T14:15:29;10.00;99.90
53410;DHT22;66590;50.734;4.246;2023-02-12T14:18:20;9.90;99.90
53410;DHT22;66590;50.734;4.246;2023-02-12T14:20:48;10.00;99.90
53410;DHT22;66590;50.734;4.246;2023-02-12T14:23:35;10.00;99.90
53410;DHT22;66590;50.734;4.246;2023-02-12T14:26:04;10.10;99.90
53410;DHT22;66590;50.734;4.246;2023-02-12T14:28:43;10.00;99.90
53410;DHT22;66590;50.734;4.246;2023-02-12T14:31:31;10.00;99.90
53410;DHT22;66590;50.734;4.246;2023-02-12T14:37:31;9.90;99.90
53410;DHT22;66590;50.734;4.246;2023-02-12T14:40:36;9.90;99.90
53410;DHT22;66590;50.734;4.246;2023-02-12T14:43:25;9.90;99.90
53410;DHT22;66590;50.734;4.246;2023-02-12T14:45:54;10.00;99.90
53410;DHT22;66590;50.734;4.246;2023-02-12T14:48:44;10.00;99.90
53410;DHT22;66590;50.734;4.246;2023-02-12T14:51:20;10.00;99.90
53410;DHT22;66590;50.734;4.246;2023-02-12T14:53:48;10.00;99.90
53410;DHT22;66590;50.734;4.246;2023-02-12T14:56:19;10.00;99.90
53410;DHT22;66590;50.734;4.246;2023-02-12T14:58:47;10.00;99.90
53410;DHT22;66590;50.734;4.246;2023-02-12T15:01:16;10.00;99.90
53410;DHT22;66590;50.734;4.246;2023-02-12T15:03:47;9.90;99.90
53410;DHT22;66590;50.734;4.246;2023-02-12T15:06:17;9.90;99.90
53410;DHT22;66590;50.734;4.246;2023-02-12T15:08:49;9.80;99.90
53410;DHT22;66590;50.734;4.246;2023-02-12T15:11:26;9.80;99.90
53410;DHT22;66590;50.734;4.246;2023-02-12T15:13:58;9.70;99.90
53410;DHT22;66590;50.734;4.246;2023-02-12T15:16:32;9.70;99.90
53410;DHT22;66590;50.734;4.246;2023-02-12T15:19:04;9.70;99.90
53410;DHT22;66590;50.734;4.246;2023-02-12T15:21:34;9.70;99.90
53410;DHT22;66590;50.734;4.246;2023-02-12T15:24:05;9.60;99.90
53410;DHT22;66590;50.734;4.246;2023-02-12T15:26:35;9.50;99.90
53410;DHT22;66590;50.734;4.246;2023-02-12T15:29:03;9.50;99.90
53410;DHT22;66590;50.734;4.246;2023-02-12T15:31:32;9.60;99.90
53410;DHT22;66590;50.734;4.246;2023-02-12T15:34:02;9.60;99.90
53410;DHT22;66590;50.734;4.246;2023-02-12T15:36:31;9.60;99.90
53410;DHT22;66590;50.734;4.246;2023-02-12T15:39:00;9.50;99.90
53410;DHT22;66590;50.734;4.246;2023-02-12T15:41:34;9.60;99.90
53410;DHT22;66590;50.734;4.246;2023-02-12T15:44:04;9.60;99.90
53410;DHT22;66590;50.734;4.246;2023-02-12T15:46:54;9.60;99.90
53410;DHT22;66590;50.734;4.246;2023-02-12T15:49:26;9.60;99.90
53410;DHT22;66590;50.734;4.246;2023-02-12T15:51:54;9.60;99.90
53410;DHT22;66590;50.734;4.246;2023-02-12T15:54:22;9.60;99.90
53410;DHT22;66590;50.734;4.246;2023-02-12T15:56:49;9.60;99.90
53410;DHT22;66590;50.734;4.246;2023-02-12T15:59:20;9.70;99.90
53410;DHT22;66590;50.734;4.246;2023-02-12T16:01:57;9.70;99.90
53410;DHT22;66590;50.734;4.246;2023-02-12T16:04:27;9.70;99.90
53410;DHT22;66590;50.734;4.246;2023-02-12T16:06:55;9.70;99.90
53410;DHT22;66590;50.734;4.246;2023-02-12T16:09:27;9.60;99.90
53410;DHT22;66590;50.734;4.246;2023-02-12T16:11:55;9.60;99.90
53410;DHT22;66590;50.734;4.246;2023-02-12T16:14:25;9.60;99.90
53410;DHT22;66590;50.734;4.246;2023-02-12T16:16:57;9.50;99.90
53410;DHT22;66590;50.734;4.246;2023-02-12T16:19:25;9.50;99.90
53410;DHT22;66590;50.734;4.246;2023-02-12T16:21:56;9.40;99.90
53410;DHT22;66590;50.734;4.246;2023-02-12T16:24:28;9.50;99.90
53410;DHT22;66590;50.734;4.246;2023-02-12T16:26:57;9.40;99.90
53410;DHT22;66590;50.734;4.246;2023-02-12T16:29:25;9.40;99.90